Time;durP1;ratioP1;P1;durP2;ratioP2;P2;SDS_P1;SDS_P2;PMS_P1;PMS_P2;Temp;Humidity;BMP_temperature;BMP_pressure;BME280_temperature;BME280_humidity;BME280_pressure;Samples;Min_cycle;Max_cycle;Signal;HPM_P1;HPM_P2
2023/01/26 00:01:57;;;;;;;20.40;10.73;;;;;;;-0.13;100.00;96627.41;5081185;28;20209;-81
2023/01/26 00:04:24;;;;;;;21.37;11.10;;;;;;;-0.16;100.00;96621.56;5085583;28;20236;-81
2023/01/26 00:06:52;;;;;;;22.20;11.90;;;;;;;-0.16;100.00;96627.72;5087837;28;20200;-82
2023/01/26 00:09:19;;;;;;;24.13;14.10;;;;;;;-0.15;100.00;96624.06;5087890;28;20197;-82
2023/01/26 00:11:46;;;;;;;24.50;13.37;;;;;;;-0.13;100.00;96616.78;5082384;28;20197;-81
2023/01/26 00:14:13;;;;;;;23.00;12.33;;;;;;;-0.13;100.00;96610.66;5086659;28;20220;-82
2023/01/26 00:16:40;;;;;;;22.23;12.27;;;;;;;-0.16;100.00;96606.47;5086875;28;20204;-82
2023/01/26 00:19:07;;;;;;;21.40;11.80;;;;;;;-0.24;100.00;96598.47;5074918;28;20297;-81
2023/01/26 00:21:34;;;;;;;22.20;12.00;;;;;;;-0.18;100.00;96611.13;5085634;28;20232;-81
2023/01/26 00:24:03;;;;;;;24.50;12.30;;;;;;;-0.20;100.00;96594.53;5077652;28;20219;-81
2023/01/26 00:26:31;;;;;;;23.10;12.20;;;;;;;-0.24;100.00;96582.56;5087220;28;20208;-82
2023/01/26 00:29:00;;;;;;;23.37;12.60;;;;;;;-0.10;100.00;96600.56;5087787;28;20224;-82
2023/01/26 00:31:27;;;;;;;25.23;12.93;;;;;;;-0.19;100.00;96588.22;5085101;28;20205;-82
2023/01/26 00:33:56;;;;;;;22.60;12.50;;;;;;;-0.25;100.00;96580.06;5085131;28;20201;-81
2023/01/26 00:36:23;;;;;;;20.13;10.87;;;;;;;-0.17;100.00;96599.50;5078234;28;20193;-81
2023/01/26 00:38:50;;;;;;;18.90;10.63;;;;;;;-0.12;100.00;96602.53;5085157;28;20269;-81
2023/01/26 00:44:03;;;;;;;22.80;12.37;;;;;;;-0.12;100.00;96601.69;5089821;28;20284;-81
2023/01/26 00:46:30;;;;;;;21.67;12.83;;;;;;;-0.16;100.00;96597.69;5084411;28;20211;-81
2023/01/26 00:48:59;;;;;;;22.27;12.50;;;;;;;-0.15;100.00;96594.03;5082640;28;20212;-81
2023/01/26 00:51:26;;;;;;;20.47;11.33;;;;;;;-0.19;100.00;96585.59;5078559;28;20204;-81
2023/01/26 00:53:53;;;;;;;17.03;9.73;;;;;;;-0.20;100.00;96583.91;5087761;28;20245;-82
2023/01/26 00:56:22;;;;;;;22.10;11.63;;;;;;;-0.22;100.00;96590.34;5085502;28;20210;-82
2023/01/26 00:58:49;;;;;;;20.40;10.63;;;;;;;-0.30;100.00;96577.88;5087232;28;20216;-82
2023/01/26 01:01:17;;;;;;;17.73;10.70;;;;;;;-0.25;100.00;96575.56;5082967;28;20288;-81
2023/01/26 01:03:44;;;;;;;16.93;10.10;;;;;;;-0.22;100.00;96575.28;5086254;28;20275;-82
2023/01/26 01:06:11;;;;;;;18.87;10.70;;;;;;;-0.14;100.00;96588.59;5085751;28;20292;-81
2023/01/26 01:08:38;;;;;;;20.90;11.43;;;;;;;-0.10;100.00;96584.63;5083028;28;20211;-82
2023/01/26 01:11:09;;;;;;;21.07;11.37;;;;;;;-0.06;100.00;96578.00;5084241;28;20208;-82
2023/01/26 01:13:38;;;;;;;20.50;11.00;;;;;;;-0.03;100.00;96580.34;5084329;28;20231;-81
2023/01/26 01:16:06;;;;;;;22.60;11.83;;;;;;;-0.07;100.00;96571.03;5081147;28;20227;-82
2023/01/26 01:18:34;;;;;;;22.90;12.00;;;;;;;-0.01;100.00;96577.53;5083022;28;20203;-81
2023/01/26 01:21:01;;;;;;;20.37;11.73;;;;;;;-0.08;100.00;96572.00;5080546;28;20228;-82
2023/01/26 01:23:28;;;;;;;23.70;12.23;;;;;;;-0.12;100.00;96565.38;5087877;28;20212;-82
2023/01/26 01:25:59;;;;;;;22.37;12.33;;;;;;;-0.06;100.00;96579.81;5086781;28;20243;-81
2023/01/26 01:28:27;;;;;;;19.70;11.53;;;;;;;-0.06;100.00;96575.34;5087578;28;20298;-82
2023/01/26 01:30:56;;;;;;;19.03;11.10;;;;;;;-0.02;100.00;96579.38;5087719;28;20208;-81
2023/01/26 01:33:23;;;;;;;20.50;11.33;;;;;;;0.06;100.00;96588.34;5086519;28;20253;-82
2023/01/26 01:35:57;;;;;;;20.50;11.10;;;;;;;0.08;100.00;96591.69;5087508;28;20209;-82
2023/01/26 01:38:24;;;;;;;20.10;11.27;;;;;;;0.08;100.00;96591.69;5074208;28;20213;-81
2023/01/26 01:40:51;;;;;;;20.37;11.90;;;;;;;0.08;100.00;96586.38;5085541;28;20223;-81
2023/01/26 01:43:19;;;;;;;21.70;11.30;;;;;;;0.06;100.00;96581.22;5086795;28;20205;-81
2023/01/26 01:45:47;;;;;;;23.03;11.97;;;;;;;0.08;100.00;96578.41;5088607;28;20235;-81
2023/01/26 01:48:23;;;;;;;23.50;12.47;;;;;;;0.03;100.00;96564.75;5085837;28;20205;-81
2023/01/26 01:50:54;;;;;;;17.97;11.63;;;;;;;0.05;100.00;96571.59;5084389;28;20201;-81
2023/01/26 01:53:24;;;;;;;22.03;11.30;;;;;;;-0.05;100.00;96566.41;5079135;28;20228;-81
2023/01/26 01:55:56;;;;;;;22.67;11.67;;;;;;;-0.08;100.00;96568.53;5085580;28;20203;-81
2023/01/26 01:58:24;;;;;;;18.50;11.10;;;;;;;-0.24;100.00;96571.09;5085097;28;20233;-81
2023/01/26 02:00:51;;;;;;;17.83;10.80;;;;;;;-0.28;100.00;96575.91;5077723;28;20200;-82
2023/01/26 02:03:20;;;;;;;20.00;10.40;;;;;;;-0.29;100.00;96570.75;5086633;28;20273;-81
2023/01/26 02:05:55;;;;;;;18.43;10.53;;;;;;;-0.23;100.00;96586.88;5086025;28;20221;-81
2023/01/26 02:08:26;;;;;;;16.37;9.77;;;;;;;-0.29;100.00;96587.50;5083347;28;20208;-81
2023/01/26 02:10:58;;;;;;;18.70;10.60;;;;;;;-0.29;100.00;96587.50;5082110;28;20211;-82
2023/01/26 02:13:28;;;;;;;14.80;9.60;;;;;;;-0.37;100.00;96571.53;5085875;28;20201;-81
2023/01/26 02:15:57;;;;;;;16.20;9.87;;;;;;;-0.35;100.00;96580.19;5071677;28;20236;-82
2023/01/26 02:18:25;;;;;;;18.40;10.43;;;;;;;-0.34;100.00;96584.47;5086661;28;20246;-81
2023/01/26 02:20:57;;;;;;;17.20;10.47;;;;;;;-0.37;100.00;96584.81;5080642;28;20228;-81
2023/01/26 02:23:35;;;;;;;19.17;10.40;;;;;;;-0.30;100.00;96591.16;5085372;28;20288;-81
2023/01/26 02:26:11;;;;;;;20.27;11.53;;;;;;;-0.35;100.00;96574.03;5083625;28;20238;-81
2023/01/26 02:28:39;;;;;;;18.53;10.63;;;;;;;-0.31;100.00;96581.53;5084360;28;20201;-81
2023/01/26 02:31:07;;;;;;;16.47;10.50;;;;;;;-0.28;100.00;96581.22;5089021;28;20197;-81
2023/01/26 02:33:34;;;;;;;18.07;10.40;;;;;;;-0.25;100.00;96577.41;5082975;28;20213;-81
2023/01/26 02:36:04;;;;;;;19.10;10.10;;;;;;;-0.27;100.00;96564.31;5083181;28;20198;-81
2023/01/26 02:38:40;;;;;;;18.53;9.83;;;;;;;-0.24;100.00;96571.09;5085600;28;20228;-81
2023/01/26 02:41:12;;;;;;;19.50;10.77;;;;;;;-0.39;100.00;96558.44;5091260;28;20204;-81
2023/01/26 02:43:39;;;;;;;18.27;10.13;;;;;;;-0.36;100.00;96567.91;5087476;28;20317;-81
2023/01/26 02:46:06;;;;;;;20.50;10.53;;;;;;;-0.37;100.00;96568.91;5091276;28;20216;-81
2023/01/26 02:51:23;;;;;;;18.93;10.67;;;;;;;-0.45;100.00;96561.72;5088266;28;20279;-81
2023/01/26 02:53:50;;;;;;;19.40;11.20;;;;;;;-0.50;100.00;96549.91;5084408;28;20224;-81
2023/01/26 02:56:18;;;;;;;20.97;11.20;;;;;;;-0.49;100.00;96546.25;5087307;28;20254;-81
2023/01/26 02:58:45;;;;;;;22.30;11.87;;;;;;;-0.50;100.00;96548.09;5090220;28;20295;-81
2023/01/26 03:01:12;;;;;;;20.13;11.67;;;;;;;-0.54;100.00;96543.25;5088109;28;20224;-81
2023/01/26 03:03:47;;;;;;;23.57;11.53;;;;;;;-0.53;100.00;96537.81;5089087;28;20199;-81
2023/01/26 03:06:15;;;;;;;22.00;10.70;;;;;;;-0.56;100.00;96534.63;5087449;28;20220;-81
2023/01/26 03:08:42;;;;;;;20.83;11.97;;;;;;;-0.58;100.00;96526.81;5084563;28;20221;-81
2023/01/26 03:11:09;;;;;;;22.40;12.30;;;;;;;-0.56;100.00;96526.66;5087501;28;20219;-81
2023/01/26 03:13:39;;;;;;;19.27;10.93;;;;;;;-0.62;100.00;96514.88;5088753;28;20204;-81
2023/01/26 03:16:09;;;;;;;18.73;10.87;;;;;;;-0.52;100.00;96520.06;5085971;28;20240;-81
2023/01/26 03:29:46;;;;;;;22.23;11.30;;;;;;;-0.55;100.00;96504.47;5085325;28;20227;-81
2023/01/26 03:32:14;;;;;;;20.63;10.73;;;;;;;-0.53;100.00;96507.78;5082572;28;20194;-81
2023/01/26 03:34:42;;;;;;;21.50;12.07;;;;;;;-0.46;100.00;96503.53;5083350;28;20264;-81
2023/01/26 03:37:10;;;;;;;19.57;11.20;;;;;;;-0.57;100.00;96491.34;5086300;28;20197;-81
2023/01/26 03:56:21;;;;;;;18.83;10.67;;;;;;;-0.57;100.00;96490.53;5084547;28;20218;-81
2023/01/26 03:58:52;;;;;;;27.47;12.87;;;;;;;-0.54;100.00;96490.22;5085415;28;20280;-81
2023/01/26 04:01:26;;;;;;;21.53;13.00;;;;;;;-0.53;100.00;96486.56;5073652;28;20210;-81
2023/01/26 04:09:27;;;;;;;23.93;11.60;;;;;;;-0.51;100.00;96484.59;5087147;28;20215;-81
2023/01/26 04:11:54;;;;;;;20.93;11.37;;;;;;;-0.49;100.00;96493.22;5070860;28;20190;-81
2023/01/26 04:22:43;;;;;;;22.50;12.00;;;;;;;-0.54;100.00;96482.25;5084336;28;20208;-83
2023/01/26 04:25:13;;;;;;;20.00;11.10;;;;;;;-0.59;100.00;96480.06;5083300;28;20251;-83
2023/01/26 04:27:42;;;;;;;20.53;11.00;;;;;;;-0.59;100.00;96476.59;5085142;28;20205;-83
2023/01/26 04:30:13;;;;;;;20.43;10.77;;;;;;;-0.67;100.00;96458.81;5085033;28;20201;-83
2023/01/26 04:32:41;;;;;;;20.13;11.33;;;;;;;-0.65;100.00;96461.31;5086427;28;20207;-81
2023/01/26 04:35:10;;;;;;;21.33;11.60;;;;;;;-0.56;100.00;96470.97;5086566;28;20271;-80
2023/01/26 04:37:38;;;;;;;20.73;11.17;;;;;;;-0.64;100.00;96455.84;5086110;28;20208;-81
2023/01/26 04:40:07;;;;;;;22.60;12.10;;;;;;;-0.68;100.00;96451.03;5084287;28;20227;-80
2023/01/26 04:42:35;;;;;;;22.33;12.33;;;;;;;-0.72;100.00;96444.38;5080423;28;20209;-80
2023/01/26 04:45:05;;;;;;;22.20;11.43;;;;;;;-0.64;100.00;96450.53;5081979;28;20227;-81
2023/01/26 04:47:32;;;;;;;22.83;12.27;;;;;;;-0.62;100.00;96458.34;5073740;28;20201;-80
2023/01/26 04:50:01;;;;;;;20.00;10.73;;;;;;;-0.55;100.00;96454.06;5080288;28;20205;-81
2023/01/26 04:52:28;;;;;;;24.27;11.30;;;;;;;-0.57;100.00;96448.09;5087918;28;20231;-80
2023/01/26 04:54:55;;;;;;;20.90;11.30;;;;;;;-0.69;100.00;96433.47;5087877;28;20246;-80
2023/01/26 04:57:23;;;;;;;19.87;10.77;;;;;;;-0.62;100.00;96442.44;5083270;28;20258;-80
2023/01/26 04:59:51;;;;;;;18.40;10.60;;;;;;;-0.69;100.00;96434.28;5083375;28;20197;-80
2023/01/26 05:02:20;;;;;;;21.07;11.20;;;;;;;-0.77;100.00;96427.09;5085094;28;20209;-80
2023/01/26 05:04:47;;;;;;;19.90;10.70;;;;;;;-0.71;100.00;96430.97;5082469;28;20212;-80
2023/01/26 05:07:16;;;;;;;23.03;11.17;;;;;;;-0.63;100.00;96435.47;5087601;28;20243;-80
2023/01/26 05:09:45;;;;;;;16.53;9.70;;;;;;;-0.75;100.00;96416.34;5084171;28;20213;-81
2023/01/26 05:12:42;;;;;;;19.80;10.80;;;;;;;-0.67;100.00;96428.81;5083142;28;20212;-83
2023/01/26 05:15:12;;;;;;;18.57;10.20;;;;;;;-0.70;100.00;96415.88;5083476;28;20309;-83
2023/01/26 05:17:58;;;;;;;22.97;10.90;;;;;;;-0.67;100.00;96419.03;5083014;28;20208;-83
2023/01/26 05:20:52;;;;;;;16.77;8.93;;;;;;;-0.62;100.00;96423.88;5084618;28;20228;-83
2023/01/26 05:23:27;;;;;;;22.23;10.80;;;;;;;-0.64;100.00;96416.06;5076237;28;20213;-80
2023/01/26 05:26:22;;;;;;;18.63;10.00;;;;;;;-0.59;100.00;96421.72;5070876;28;20223;-80
2023/01/26 05:29:05;;;;;;;22.03;10.20;;;;;;;-0.60;100.00;96417.44;5081643;28;20228;-80
2023/01/26 05:31:33;;;;;;;20.53;11.07;;;;;;;-0.61;100.00;96420.25;5087592;28;20193;-80
2023/01/26 05:34:00;;;;;;;19.63;9.90;;;;;;;-0.65;100.00;96429.50;5090418;28;20185;-80
2023/01/26 05:36:27;;;;;;;18.70;9.73;;;;;;;-0.79;100.00;96410.56;5087129;28;20204;-80
2023/01/26 05:38:56;;;;;;;20.97;10.37;;;;;;;-0.80;100.00;96410.69;5081448;28;20229;-80
2023/01/26 05:41:26;;;;;;;20.83;11.00;;;;;;;-0.71;100.00;96425.66;5089730;28;20216;-80
2023/01/26 05:44:11;;;;;;;21.03;10.90;;;;;;;-0.65;100.00;96424.19;5082228;28;20333;-80
2023/01/26 05:46:42;;;;;;;24.83;10.53;;;;;;;-0.60;100.00;96427.22;5085837;28;20216;-80
2023/01/26 05:49:10;;;;;;;25.73;10.90;;;;;;;-0.57;100.00;96427.72;5076899;28;20201;-80
2023/01/26 05:51:37;;;;;;;20.40;11.00;;;;;;;-0.61;100.00;96421.06;5088067;28;20204;-80
2023/01/26 05:54:06;;;;;;;21.87;11.83;;;;;;;-0.59;100.00;96423.53;5082058;28;20200;-80
2023/01/26 05:56:34;;;;;;;21.60;10.83;;;;;;;-0.60;100.00;96432.50;5086971;28;20216;-80
2023/01/26 05:59:03;;;;;;;18.27;10.10;;;;;;;-0.64;100.00;96431.16;5080943;28;20209;-80
2023/01/26 06:01:31;;;;;;;21.43;11.40;;;;;;;-0.71;100.00;96424.84;5083228;28;20204;-80
2023/01/26 06:04:02;;;;;;;23.53;10.93;;;;;;;-0.64;100.00;96431.16;5101117;28;20208;-80
2023/01/26 06:06:36;;;;;;;19.67;10.17;;;;;;;-0.63;100.00;96433.66;5099359;28;20227;-80
2023/01/26 06:09:22;;;;;;;21.50;10.40;;;;;;;-0.66;100.00;96427.81;5086467;28;20216;-80
2023/01/26 06:12:15;;;;;;;19.97;10.30;;;;;;;-0.64;100.00;96436.47;5080178;28;20220;-80
2023/01/26 06:14:52;;;;;;;18.70;9.87;;;;;;;-0.57;100.00;96434.81;5086691;28;20220;-80
2023/01/26 06:17:19;;;;;;;19.10;10.00;;;;;;;-0.47;100.00;96435.53;5084804;28;20205;-80
2023/01/26 06:19:53;;;;;;;14.83;8.73;;;;;;;-0.41;100.00;96437.53;5087087;28;20261;-80
2023/01/26 06:22:20;;;;;;;19.40;11.03;;;;;;;-0.41;100.00;96422.47;5087747;28;20208;-80
2023/01/26 06:24:51;;;;;;;20.53;11.00;;;;;;;-0.39;100.00;96420.47;5089787;28;20201;-80
2023/01/26 06:27:19;;;;;;;19.13;9.77;;;;;;;-0.33;100.00;96440.22;5085169;28;20226;-80
2023/01/26 06:29:48;;;;;;;16.30;9.30;;;;;;;-0.32;100.00;96420.66;5090796;28;20280;-80
2023/01/26 06:32:15;;;;;;;20.63;11.20;;;;;;;-0.31;100.00;96432.94;5082854;28;20310;-80
2023/01/26 06:34:44;;;;;;;17.13;9.90;;;;;;;-0.38;100.00;96431.94;5087530;28;20257;-80
2023/01/26 06:37:12;;;;;;;19.73;10.53;;;;;;;-0.46;100.00;96418.63;5091106;28;20203;-80
2023/01/26 06:39:41;;;;;;;20.97;10.83;;;;;;;-0.52;100.00;96416.63;5082238;28;20212;-80
2023/01/26 06:42:09;;;;;;;21.27;10.77;;;;;;;-0.64;100.00;96417.91;5085165;28;20202;-80
2023/01/26 06:44:38;;;;;;;19.10;10.37;;;;;;;-0.69;100.00;96410.44;5095154;28;20201;-80
2023/01/26 06:47:08;;;;;;;22.00;10.37;;;;;;;-0.59;100.00;96423.53;5104411;28;20307;-80
2023/01/26 06:49:35;;;;;;;19.33;9.63;;;;;;;-0.56;100.00;96429.38;5087246;28;20251;-80
2023/01/26 06:52:23;;;;;;;19.27;10.83;;;;;;;-0.55;100.00;96419.59;5087330;28;20208;-80
2023/01/26 06:54:53;;;;;;;23.90;11.37;;;;;;;-0.55;100.00;96430.19;5084245;28;20239;-80
2023/01/26 06:57:36;;;;;;;20.17;10.67;;;;;;;-0.59;100.00;96429.69;5086312;28;20307;-78
2023/01/26 07:00:07;;;;;;;18.80;9.97;;;;;;;-0.61;100.00;96415.78;5085589;28;20204;-79
2023/01/26 07:02:44;;;;;;;17.83;10.00;;;;;;;-0.55;100.00;96427.53;5086359;28;20213;-79
2023/01/26 07:05:11;;;;;;;20.53;10.53;;;;;;;-0.58;100.00;96427.84;5085800;28;20204;-79
2023/01/26 07:07:38;;;;;;;17.17;9.23;;;;;;;-0.61;100.00;96426.38;5087183;28;20229;-79
2023/01/26 07:10:06;;;;;;;18.37;10.37;;;;;;;-0.62;100.00;96429.19;5088482;28;20196;-79
2023/01/26 07:12:41;;;;;;;23.50;10.00;;;;;;;-0.69;100.00;96430.81;5089135;28;20282;-79
2023/01/26 07:15:10;;;;;;;18.67;10.73;;;;;;;-0.64;100.00;96433.81;5085804;28;20228;-79
2023/01/26 07:17:37;;;;;;;20.57;10.50;;;;;;;-0.62;100.00;96430.00;5081488;28;20291;-79
2023/01/26 07:20:05;;;;;;;23.40;10.33;;;;;;;-0.60;100.00;96429.88;5080180;28;20198;-79
2023/01/26 07:22:32;;;;;;;20.03;10.43;;;;;;;-0.57;100.00;96426.88;5082796;28;20189;-79
2023/01/26 07:24:59;;;;;;;21.10;10.73;;;;;;;-0.61;100.00;96430.84;5084730;28;20197;-79
2023/01/26 07:27:25;;;;;;;20.67;11.40;;;;;;;-0.67;100.00;96428.81;5084391;28;20220;-79
2023/01/26 07:29:54;;;;;;;19.43;10.33;;;;;;;-0.72;100.00;96433.78;5087372;28;20205;-79
2023/01/26 07:32:21;;;;;;;19.47;9.87;;;;;;;-0.71;100.00;96440.75;5084237;28;20248;-79
2023/01/26 07:34:48;;;;;;;21.47;10.97;;;;;;;-0.77;100.00;96437.72;5079347;28;20441;-79
2023/01/26 07:37:15;;;;;;;17.50;9.37;;;;;;;-0.79;100.00;96431.75;5090136;28;20201;-79
2023/01/26 07:39:42;;;;;;;20.17;10.57;;;;;;;-0.78;100.00;96438.72;5086649;28;20209;-79
2023/01/26 07:42:10;;;;;;;20.00;10.23;;;;;;;-0.78;100.00;96427.28;5079452;28;20204;-78
2023/01/26 07:44:45;;;;;;;19.67;10.03;;;;;;;-0.73;100.00;96432.09;5084204;28;20197;-79
2023/01/26 07:47:14;;;;;;;21.30;11.07;;;;;;;-0.69;100.00;96436.94;5085998;28;20231;-79
2023/01/26 07:49:41;;;;;;;23.40;11.17;;;;;;;-0.68;100.00;96437.78;5082428;28;20201;-79
2023/01/26 07:52:08;;;;;;;20.33;11.20;;;;;;;-0.67;100.00;96442.06;5076122;28;20193;-78
2023/01/26 07:54:36;;;;;;;18.40;9.80;;;;;;;-0.78;100.00;96441.38;5083181;28;20254;-79
2023/01/26 07:57:05;;;;;;;19.13;9.77;;;;;;;-0.80;100.00;96429.25;5083222;28;20197;-81
2023/01/26 07:59:32;;;;;;;21.17;11.83;;;;;;;-0.84;100.00;96417.28;5081652;28;20509;-81
2023/01/26 08:01:59;;;;;;;19.20;10.60;;;;;;;-0.93;100.00;96416.41;5088311;28;20201;-81
2023/01/26 08:04:28;;;;;;;25.40;11.97;;;;;;;-0.94;100.00;96412.13;5083823;28;20189;-81
2023/01/26 08:06:55;;;;;;;19.23;10.30;;;;;;;-0.81;100.00;96423.13;5072805;28;20226;-81
2023/01/26 08:09:23;;;;;;;18.60;9.97;;;;;;;-0.86;100.00;96414.81;5080037;28;20208;-81
2023/01/26 08:11:50;;;;;;;18.20;10.07;;;;;;;-0.83;100.00;96422.44;5082442;28;20217;-81
2023/01/26 08:14:17;;;;;;;22.97;11.00;;;;;;;-0.83;100.00;96427.75;5100872;28;20226;-81
2023/01/26 08:16:45;;;;;;;19.97;10.37;;;;;;;-0.83;100.00;96422.44;5087404;28;20205;-81
2023/01/26 08:19:12;;;;;;;21.83;10.87;;;;;;;-0.87;100.00;96415.81;5083797;28;20193;-80
2023/01/26 08:21:40;;;;;;;18.67;10.10;;;;;;;-0.88;100.00;96406.19;5081131;28;20227;-80
2023/01/26 08:24:08;;;;;;;22.10;11.30;;;;;;;-0.73;100.00;96421.50;5080557;28;20209;-80
2023/01/26 08:26:35;;;;;;;18.37;10.40;;;;;;;-0.81;100.00;96411.69;5079382;28;20315;-81
2023/01/26 08:29:02;;;;;;;22.10;11.40;;;;;;;-0.70;100.00;96414.06;5084835;28;20205;-80
2023/01/26 08:31:29;;;;;;;21.27;11.10;;;;;;;-0.61;100.00;96417.59;5086389;28;20205;-80
2023/01/26 08:33:56;;;;;;;17.73;10.60;;;;;;;-0.68;100.00;96413.91;5086454;28;20223;-81
2023/01/26 08:36:23;;;;;;;20.20;10.20;;;;;;;-0.56;100.00;96423.22;5081734;28;20205;-78
2023/01/26 08:38:52;;;;;;;22.53;11.07;;;;;;;-0.61;100.00;96404.31;5084410;28;20205;-78
2023/01/26 08:41:19;;;;;;;19.00;10.33;;;;;;;-0.62;100.00;96402.66;5085735;28;20197;-78
2023/01/26 08:43:46;;;;;;;19.97;11.07;;;;;;;-0.57;100.00;96417.09;5085149;28;20208;-79
2023/01/26 08:46:13;;;;;;;20.20;10.17;;;;;;;-0.54;100.00;96410.66;5081840;28;20239;-79
2023/01/26 08:48:40;;;;;;;20.63;10.73;;;;;;;-0.52;100.00;96408.69;5085475;28;20189;-79
2023/01/26 08:51:08;;;;;;;16.57;9.93;;;;;;;-0.51;100.00;96415.66;5084717;28;20251;-79
2023/01/26 08:53:37;;;;;;;18.23;10.30;;;;;;;-0.56;100.00;96400.19;5083406;28;20209;-79
2023/01/26 08:56:11;;;;;;;18.47;10.67;;;;;;;-0.53;100.00;96417.63;5078746;28;20222;-78
2023/01/26 08:58:38;;;;;;;17.70;10.20;;;;;;;-0.59;100.00;96407.63;5073036;28;20472;-79
2023/01/26 09:01:11;;;;;;;20.53;10.33;;;;;;;-0.48;100.00;96399.38;5084715;28;20215;-79
2023/01/26 09:03:38;;;;;;;20.30;10.67;;;;;;;-0.51;100.00;96399.72;5078073;28;20296;-79
2023/01/26 09:06:07;;;;;;;21.97;11.17;;;;;;;-0.45;100.00;96410.53;5085320;28;20211;-79
2023/01/26 09:08:34;;;;;;;19.23;11.07;;;;;;;-0.47;99.96;96411.66;5076889;28;20209;-79
2023/01/26 09:11:02;;;;;;;19.53;11.60;;;;;;;-0.46;100.00;96408.84;5080822;28;20204;-79
2023/01/26 09:13:30;;;;;;;21.73;10.10;;;;;;;-0.41;100.00;96405.72;5083953;28;20204;-79
2023/01/26 09:15:57;;;;;;;18.23;10.27;;;;;;;-0.35;100.00;96417.50;5076122;28;20209;-79
2023/01/26 09:18:24;;;;;;;17.93;9.37;;;;;;;-0.34;100.00;96396.09;5077563;28;20687;-80
2023/01/26 09:20:51;;;;;;;20.57;11.30;;;;;;;-0.32;100.00;96388.81;5084183;28;20244;-78
2023/01/26 09:23:19;;;;;;;20.10;11.27;;;;;;;-0.20;99.42;96394.66;5079535;28;20284;-79
2023/01/26 09:25:46;;;;;;;19.47;10.47;;;;;;;-0.25;99.62;96389.00;5071782;28;20200;-79
2023/01/26 09:28:13;;;;;;;18.73;10.70;;;;;;;-0.20;100.00;96386.72;5082753;28;20217;-78
2023/01/26 09:30:41;;;;;;;18.67;9.67;;;;;;;-0.09;99.76;96392.53;5086977;28;20282;-78
2023/01/26 09:33:08;;;;;;;19.83;10.20;;;;;;;-0.09;99.33;96389.06;5085371;28;20219;-78
2023/01/26 09:35:36;;;;;;;18.10;10.33;;;;;;;0.06;98.06;96397.19;5084077;28;20224;-78
2023/01/26 09:38:03;;;;;;;16.57;10.27;;;;;;;-0.05;97.48;96404.47;5087758;28;20215;-78
2023/01/26 09:40:37;;;;;;;18.40;9.60;;;;;;;0.05;97.70;96407.00;5085295;28;20204;-78
2023/01/26 09:43:17;;;;;;;17.67;10.13;;;;;;;0.03;98.55;96413.44;5086315;28;20236;-77
2023/01/26 09:45:54;;;;;;;18.43;10.20;;;;;;;-0.01;97.56;96407.66;5088378;28;20230;-78
2023/01/26 09:48:31;;;;;;;19.20;10.13;;;;;;;-0.07;97.15;96403.81;5087849;28;20285;-78
2023/01/26 09:51:05;;;;;;;17.17;10.10;;;;;;;0.06;98.26;96418.44;5079879;28;20205;-78
2023/01/26 09:53:43;;;;;;;17.77;10.37;;;;;;;0.09;98.60;96415.44;5088154;28;20203;-78
2023/01/26 09:56:17;;;;;;;18.53;10.73;;;;;;;0.06;98.71;96405.16;5087335;28;20213;-78
2023/01/26 09:58:47;;;;;;;18.47;10.67;;;;;;;0.18;98.00;96411.81;5090664;28;20193;-78
2023/01/26 10:01:23;;;;;;;18.10;10.20;;;;;;;0.19;98.49;96406.34;5088219;28;20205;-78
2023/01/26 10:03:57;;;;;;;17.20;9.83;;;;;;;0.19;98.39;96402.84;5089262;28;20207;-81
2023/01/26 10:06:27;;;;;;;17.53;10.40;;;;;;;0.31;98.36;96410.34;5088921;28;20260;-81
2023/01/26 10:09:19;;;;;;;21.70;11.67;;;;;;;0.34;98.34;96412.66;5079252;28;20212;-79
2023/01/26 10:11:51;;;;;;;22.13;12.47;;;;;;;0.37;99.21;96406.19;5090200;28;20197;-80
2023/01/26 10:14:21;;;;;;;22.20;11.30;;;;;;;0.41;98.36;96412.84;5088581;28;20201;-81
2023/01/26 10:16:53;;;;;;;21.27;12.80;;;;;;;0.48;98.26;96416.47;5088740;28;20263;-80
2023/01/26 10:19:27;;;;;;;21.20;12.30;;;;;;;0.47;97.67;96412.16;5091938;28;20220;-80
2023/01/26 10:21:59;;;;;;;18.40;10.40;;;;;;;0.46;97.90;96410.50;5084386;28;20266;-80
2023/01/26 10:24:26;;;;;;;21.03;11.23;;;;;;;0.45;97.61;96408.84;5087490;28;20272;-80
2023/01/26 10:26:57;;;;;;;21.10;11.30;;;;;;;0.39;98.20;96414.81;5085242;28;20248;-79
2023/01/26 10:29:24;;;;;;;25.13;11.33;;;;;;;0.38;99.44;96406.03;5088227;28;20280;-80
2023/01/26 10:31:53;;;;;;;18.87;10.20;;;;;;;0.43;99.61;96400.19;5081232;28;20197;-80
2023/01/26 10:34:24;;;;;;;17.30;10.10;;;;;;;0.46;99.71;96402.53;5084767;28;20201;-80
2023/01/26 10:36:56;;;;;;;19.43;10.77;;;;;;;0.51;98.54;96397.53;5084754;28;20208;-80
2023/01/26 10:39:23;;;;;;;18.03;10.50;;;;;;;0.52;97.83;96395.72;5086056;28;20209;-79
2023/01/26 10:41:58;;;;;;;23.23;10.97;;;;;;;0.55;98.59;96403.34;5085400;28;20204;-80
2023/01/26 10:44:32;;;;;;;20.37;11.43;;;;;;;0.52;98.13;96399.19;5075495;28;20327;-80
2023/01/26 10:47:13;;;;;;;23.20;10.57;;;;;;;0.55;98.81;96404.19;5087857;28;20278;-80
2023/01/26 10:49:40;;;;;;;19.60;10.90;;;;;;;0.59;98.65;96394.91;5086594;28;20203;-80
2023/01/26 10:52:16;;;;;;;19.87;10.70;;;;;;;0.59;98.11;96397.56;5083252;28;20212;-79
2023/01/26 10:54:44;;;;;;;22.37;11.03;;;;;;;0.60;98.34;96401.00;5086388;28;20200;-80
2023/01/26 10:57:22;;;;;;;21.20;10.97;;;;;;;0.59;97.57;96402.03;5075427;28;20207;-80
2023/01/26 10:59:54;;;;;;;20.33;10.60;;;;;;;0.55;97.46;96387.41;5074648;28;20232;-80
2023/01/26 11:02:26;;;;;;;18.17;10.67;;;;;;;0.51;98.14;96386.91;5082778;28;20193;-80
2023/01/26 11:05:14;;;;;;;21.23;10.30;;;;;;;0.58;99.05;96393.25;5097113;28;20209;-80
2023/01/26 11:07:43;;;;;;;20.67;11.50;;;;;;;0.51;97.58;96386.91;5083810;28;20227;-81
2023/01/26 11:10:28;;;;;;;20.83;11.27;;;;;;;0.52;98.56;96393.06;5086161;28;20215;-81
2023/01/26 11:13:12;;;;;;;21.07;11.47;;;;;;;0.54;99.24;96389.25;5087398;28;20213;-81
2023/01/26 11:15:41;;;;;;;19.50;10.70;;;;;;;0.64;98.92;96387.25;5083134;28;20249;-81
2023/01/26 11:18:20;;;;;;;20.30;11.00;;;;;;;0.64;96.98;96384.59;5086404;28;20208;-81
2023/01/26 11:20:53;;;;;;;20.73;10.33;;;;;;;0.54;97.26;96375.13;5088362;28;20230;-81
2023/01/26 11:23:33;;;;;;;24.63;10.83;;;;;;;0.58;98.17;96382.63;5084206;28;20225;-82
2023/01/26 11:26:26;;;;;;;19.73;10.63;;;;;;;0.56;97.26;96379.28;5085757;28;20200;-82
2023/01/26 11:29:10;;;;;;;19.77;11.10;;;;;;;0.63;97.13;96371.47;5090353;28;20235;-82
2023/01/26 11:31:49;;;;;;;19.70;10.63;;;;;;;0.66;98.16;96374.63;5086773;28;20216;-82
2023/01/26 11:34:29;;;;;;;18.37;10.50;;;;;;;0.62;96.59;96365.31;5086309;28;20356;-82
2023/01/26 11:37:07;;;;;;;20.67;10.50;;;;;;;0.63;96.80;96366.97;5083494;28;20287;-83
2023/01/26 11:39:46;;;;;;;18.93;11.03;;;;;;;0.72;96.93;96363.31;5081503;28;20201;-82
2023/01/26 11:42:24;;;;;;;17.83;10.47;;;;;;;0.67;95.82;96357.69;5084567;28;20209;-81
2023/01/26 11:45:17;;;;;;;20.27;11.37;;;;;;;0.60;95.74;96346.06;5085667;28;20202;-82
2023/01/26 11:47:55;;;;;;;22.30;10.47;;;;;;;0.51;96.80;96355.03;5072357;28;20221;-81
2023/01/26 11:50:33;;;;;;;17.60;10.27;;;;;;;0.42;97.27;96361.38;5083891;28;20227;-82
2023/01/26 11:53:26;;;;;;;17.80;10.60;;;;;;;0.45;97.16;96353.06;5084646;28;20287;-81
2023/01/26 11:56:06;;;;;;;17.00;10.23;;;;;;;0.57;96.85;96353.53;5077335;28;20214;-82
2023/01/26 11:58:39;;;;;;;21.70;10.77;;;;;;;0.59;96.24;96357.69;5083954;28;20208;-82
2023/01/26 12:01:11;;;;;;;20.57;10.87;;;;;;;0.58;96.00;96340.09;5079400;28;20212;-82
2023/01/26 12:03:44;;;;;;;18.53;10.97;;;;;;;0.63;96.61;96353.69;5076350;28;20279;-82
2023/01/26 12:06:18;;;;;;;19.07;9.30;;;;;;;0.64;96.33;96344.72;5075254;28;20258;-82
2023/01/26 12:08:50;;;;;;;19.73;9.83;;;;;;;0.65;96.03;96341.06;5082844;28;20245;-82
2023/01/26 12:11:22;;;;;;;19.30;9.87;;;;;;;0.57;95.83;96343.75;5083809;28;20242;-82
2023/01/26 12:14:07;;;;;;;26.07;10.43;;;;;;;0.48;96.36;96336.78;5090286;28;20204;-82
2023/01/26 12:16:47;;;;;;;20.83;10.73;;;;;;;0.50;97.25;96331.31;5081095;28;20322;-77
2023/01/26 12:19:29;;;;;;;22.73;11.07;;;;;;;0.55;97.22;96332.44;5086193;28;20227;-78